sensor_id;sensor_type;location;lat;lon;timestamp;P1;durP1;ratioP1;P2;durP2;ratioP2
37001;SDS011;22913;51.910;8.374;2023-04-24T00:02:12;1.50;;;0.70;;
37001;SDS011;22913;51.910;8.374;2023-04-24T00:04:58;0.73;;;0.60;;
37001;SDS011;22913;51.910;8.374;2023-04-24T00:07:46;0.80;;;0.80;;
37001;SDS011;22913;51.910;8.374;2023-04-24T00:10:33;0.60;;;0.60;;
37001;SDS011;22913;51.910;8.374;2023-04-24T00:13:19;1.80;;;1.07;;
37001;SDS011;22913;51.910;8.374;2023-04-24T00:16:05;0.70;;;0.70;;
37001;SDS011;22913;51.910;8.374;2023-04-24T00:18:52;0.70;;;0.70;;
37001;SDS011;22913;51.910;8.374;2023-04-24T00:21:38;1.13;;;0.70;;
37001;SDS011;22913;51.910;8.374;2023-04-24T00:24:24;0.93;;;0.93;;
37001;SDS011;22913;51.910;8.374;2023-04-24T00:27:17;0.97;;;0.67;;
37001;SDS011;22913;51.910;8.374;2023-04-24T00:30:04;0.70;;;0.70;;
37001;SDS011;22913;51.910;8.374;2023-04-24T00:32:50;1.10;;;0.70;;
37001;SDS011;22913;51.910;8.374;2023-04-24T00:35:36;2.47;;;0.97;;
37001;SDS011;22913;51.910;8.374;2023-04-24T00:38:22;0.80;;;0.80;;
37001;SDS011;22913;51.910;8.374;2023-04-24T00:41:07;1.83;;;0.90;;
37001;SDS011;22913;51.910;8.374;2023-04-24T00:43:54;1.37;;;0.80;;
37001;SDS011;22913;51.910;8.374;2023-04-24T00:46:40;1.80;;;0.90;;
37001;SDS011;22913;51.910;8.374;2023-04-24T00:49:27;0.70;;;0.70;;
37001;SDS011;22913;51.910;8.374;2023-04-24T00:52:12;0.90;;;0.90;;
37001;SDS011;22913;51.910;8.374;2023-04-24T00:55:01;0.80;;;0.80;;
37001;SDS011;22913;51.910;8.374;2023-04-24T00:57:46;1.30;;;1.03;;
37001;SDS011;22913;51.910;8.374;2023-04-24T01:00:34;1.00;;;0.90;;
37001;SDS011;22913;51.910;8.374;2023-04-24T01:03:20;0.73;;;0.70;;
37001;SDS011;22913;51.910;8.374;2023-04-24T01:06:07;0.80;;;0.80;;
37001;SDS011;22913;51.910;8.374;2023-04-24T01:08:54;1.77;;;0.83;;
37001;SDS011;22913;51.910;8.374;2023-04-24T01:11:40;0.87;;;0.83;;
37001;SDS011;22913;51.910;8.374;2023-04-24T01:14:27;0.50;;;0.50;;
37001;SDS011;22913;51.910;8.374;2023-04-24T01:17:14;0.73;;;0.73;;
37001;SDS011;22913;51.910;8.374;2023-04-24T01:20:00;2.37;;;0.90;;
37001;SDS011;22913;51.910;8.374;2023-04-24T01:22:50;1.07;;;0.87;;
37001;SDS011;22913;51.910;8.374;2023-04-24T01:25:36;0.80;;;0.80;;
37001;SDS011;22913;51.910;8.374;2023-04-24T01:28:22;0.73;;;0.73;;
37001;SDS011;22913;51.910;8.374;2023-04-24T01:31:08;1.30;;;1.20;;
37001;SDS011;22913;51.910;8.374;2023-04-24T01:33:54;1.03;;;1.00;;
37001;SDS011;22913;51.910;8.374;2023-04-24T01:36:41;0.90;;;0.90;;
37001;SDS011;22913;51.910;8.374;2023-04-24T01:39:29;0.80;;;0.80;;
37001;SDS011;22913;51.910;8.374;2023-04-24T01:42:14;1.10;;;1.10;;
37001;SDS011;22913;51.910;8.374;2023-04-24T01:45:02;1.13;;;1.00;;
37001;SDS011;22913;51.910;8.374;2023-04-24T01:47:50;1.20;;;1.17;;
37001;SDS011;22913;51.910;8.374;2023-04-24T01:50:36;1.00;;;1.00;;
37001;SDS011;22913;51.910;8.374;2023-04-24T01:53:21;1.00;;;1.00;;
37001;SDS011;22913;51.910;8.374;2023-04-24T01:56:08;1.07;;;1.07;;
37001;SDS011;22913;51.910;8.374;2023-04-24T01:58:54;1.17;;;1.07;;
37001;SDS011;22913;51.910;8.374;2023-04-24T02:01:41;0.90;;;0.90;;
37001;SDS011;22913;51.910;8.374;2023-04-24T02:04:26;1.40;;;1.30;;
37001;SDS011;22913;51.910;8.374;2023-04-24T02:07:12;1.23;;;1.20;;
37001;SDS011;22913;51.910;8.374;2023-04-24T02:09:58;0.80;;;0.80;;
37001;SDS011;22913;51.910;8.374;2023-04-24T02:12:45;0.93;;;0.93;;
37001;SDS011;22913;51.910;8.374;2023-04-24T02:15:31;1.20;;;1.10;;
37001;SDS011;22913;51.910;8.374;2023-04-24T02:18:16;1.10;;;1.10;;
37001;SDS011;22913;51.910;8.374;2023-04-24T02:21:02;1.03;;;1.00;;
37001;SDS011;22913;51.910;8.374;2023-04-24T02:23:48;0.83;;;0.83;;
37001;SDS011;22913;51.910;8.374;2023-04-24T02:26:34;0.90;;;0.90;;
37001;SDS011;22913;51.910;8.374;2023-04-24T02:29:21;1.10;;;1.10;;
37001;SDS011;22913;51.910;8.374;2023-04-24T02:32:06;0.80;;;0.80;;
37001;SDS011;22913;51.910;8.374;2023-04-24T02:34:55;1.37;;;1.27;;
37001;SDS011;22913;51.910;8.374;2023-04-24T02:37:40;0.70;;;0.70;;
37001;SDS011;22913;51.910;8.374;2023-04-24T02:40:26;1.00;;;1.00;;
37001;SDS011;22913;51.910;8.374;2023-04-24T02:43:12;1.20;;;1.10;;
37001;SDS011;22913;51.910;8.374;2023-04-24T02:45:59;1.20;;;1.10;;
37001;SDS011;22913;51.910;8.374;2023-04-24T02:48:44;1.27;;;1.07;;
37001;SDS011;22913;51.910;8.374;2023-04-24T02:51:30;1.30;;;1.27;;
37001;SDS011;22913;51.910;8.374;2023-04-24T02:54:16;1.10;;;1.10;;
37001;SDS011;22913;51.910;8.374;2023-04-24T02:57:01;1.00;;;1.00;;
37001;SDS011;22913;51.910;8.374;2023-04-24T02:59:47;1.20;;;1.07;;
37001;SDS011;22913;51.910;8.374;2023-04-24T03:02:34;2.40;;;1.30;;
37001;SDS011;22913;51.910;8.374;2023-04-24T03:05:20;1.47;;;1.13;;
37001;SDS011;22913;51.910;8.374;2023-04-24T03:08:05;2.83;;;0.93;;
37001;SDS011;22913;51.910;8.374;2023-04-24T03:10:51;0.80;;;0.80;;
37001;SDS011;22913;51.910;8.374;2023-04-24T03:13:37;1.80;;;1.13;;
37001;SDS011;22913;51.910;8.374;2023-04-24T03:16:22;0.97;;;0.97;;
37001;SDS011;22913;51.910;8.374;2023-04-24T03:19:09;1.47;;;1.13;;
37001;SDS011;22913;51.910;8.374;2023-04-24T03:21:55;1.00;;;1.00;;
37001;SDS011;22913;51.910;8.374;2023-04-24T03:24:40;1.37;;;1.33;;
37001;SDS011;22913;51.910;8.374;2023-04-24T03:27:26;1.10;;;1.10;;
37001;SDS011;22913;51.910;8.374;2023-04-24T03:30:12;1.17;;;1.03;;
37001;SDS011;22913;51.910;8.374;2023-04-24T03:32:57;1.10;;;1.10;;
37001;SDS011;22913;51.910;8.374;2023-04-24T03:35:44;4.80;;;2.00;;
37001;SDS011;22913;51.910;8.374;2023-04-24T03:38:30;1.30;;;1.30;;
37001;SDS011;22913;51.910;8.374;2023-04-24T03:41:15;1.20;;;1.20;;
37001;SDS011;22913;51.910;8.374;2023-04-24T03:44:01;1.30;;;1.23;;
37001;SDS011;22913;51.910;8.374;2023-04-24T03:46:47;1.20;;;1.20;;
37001;SDS011;22913;51.910;8.374;2023-04-24T03:49:33;1.60;;;1.50;;
37001;SDS011;22913;51.910;8.374;2023-04-24T03:52:20;1.83;;;1.30;;
37001;SDS011;22913;51.910;8.374;2023-04-24T03:55:06;1.80;;;1.70;;
37001;SDS011;22913;51.910;8.374;2023-04-24T03:57:52;1.67;;;1.57;;
37001;SDS011;22913;51.910;8.374;2023-04-24T04:00:38;1.90;;;1.80;;
37001;SDS011;22913;51.910;8.374;2023-04-24T04:03:23;2.50;;;1.90;;
37001;SDS011;22913;51.910;8.374;2023-04-24T04:06:09;2.00;;;1.90;;
37001;SDS011;22913;51.910;8.374;2023-04-24T04:08:58;1.77;;;1.63;;
37001;SDS011;22913;51.910;8.374;2023-04-24T04:11:44;1.90;;;1.80;;
37001;SDS011;22913;51.910;8.374;2023-04-24T04:14:29;1.93;;;1.83;;
37001;SDS011;22913;51.910;8.374;2023-04-24T04:17:15;2.27;;;1.90;;
37001;SDS011;22913;51.910;8.374;2023-04-24T04:20:01;2.13;;;2.03;;
37001;SDS011;22913;51.910;8.374;2023-04-24T04:22:50;2.27;;;2.07;;
37001;SDS011;22913;51.910;8.374;2023-04-24T04:25:38;2.27;;;2.07;;
37001;SDS011;22913;51.910;8.374;2023-04-24T04:28:23;2.20;;;2.10;;
37001;SDS011;22913;51.910;8.374;2023-04-24T04:31:09;3.10;;;2.80;;
37001;SDS011;22913;51.910;8.374;2023-04-24T04:33:55;4.83;;;2.57;;
37001;SDS011;22913;51.910;8.374;2023-04-24T04:36:40;3.60;;;3.30;;
37001;SDS011;22913;51.910;8.374;2023-04-24T04:39:28;3.57;;;3.37;;
37001;SDS011;22913;51.910;8.374;2023-04-24T04:42:15;4.03;;;3.73;;
37001;SDS011;22913;51.910;8.374;2023-04-24T04:45:02;5.60;;;4.63;;
37001;SDS011;22913;51.910;8.374;2023-04-24T04:47:48;5.67;;;4.37;;
37001;SDS011;22913;51.910;8.374;2023-04-24T04:50:34;5.37;;;4.87;;
37001;SDS011;22913;51.910;8.374;2023-04-24T04:53:20;5.07;;;4.50;;
37001;SDS011;22913;51.910;8.374;2023-04-24T04:56:05;5.60;;;5.10;;
37001;SDS011;22913;51.910;8.374;2023-04-24T04:58:52;6.23;;;5.63;;
37001;SDS011;22913;51.910;8.374;2023-04-24T05:01:38;5.67;;;4.77;;
37001;SDS011;22913;51.910;8.374;2023-04-24T05:04:23;5.40;;;4.90;;
37001;SDS011;22913;51.910;8.374;2023-04-24T05:07:09;7.73;;;5.33;;
37001;SDS011;22913;51.910;8.374;2023-04-24T05:09:55;5.73;;;5.00;;
37001;SDS011;22913;51.910;8.374;2023-04-24T05:12:41;7.50;;;5.43;;
37001;SDS011;22913;51.910;8.374;2023-04-24T05:15:28;5.53;;;5.10;;
37001;SDS011;22913;51.910;8.374;2023-04-24T05:18:14;6.90;;;6.20;;
37001;SDS011;22913;51.910;8.374;2023-04-24T05:21:00;6.27;;;5.67;;
37001;SDS011;22913;51.910;8.374;2023-04-24T05:23:46;7.13;;;6.43;;
37001;SDS011;22913;51.910;8.374;2023-04-24T05:26:31;7.70;;;7.00;;
37001;SDS011;22913;51.910;8.374;2023-04-24T05:29:17;8.07;;;6.57;;
37001;SDS011;22913;51.910;8.374;2023-04-24T05:32:05;8.10;;;6.90;;
37001;SDS011;22913;51.910;8.374;2023-04-24T05:34:51;9.17;;;7.27;;
37001;SDS011;22913;51.910;8.374;2023-04-24T05:37:37;7.90;;;7.20;;
37001;SDS011;22913;51.910;8.374;2023-04-24T05:40:23;9.00;;;8.10;;
37001;SDS011;22913;51.910;8.374;2023-04-24T05:43:09;10.57;;;8.10;;
37001;SDS011;22913;51.910;8.374;2023-04-24T05:45:55;9.07;;;8.10;;
37001;SDS011;22913;51.910;8.374;2023-04-24T05:48:42;9.47;;;8.00;;
37001;SDS011;22913;51.910;8.374;2023-04-24T05:51:28;12.93;;;7.07;;
37001;SDS011;22913;51.910;8.374;2023-04-24T05:54:14;8.77;;;7.97;;
37001;SDS011;22913;51.910;8.374;2023-04-24T05:56:59;9.70;;;7.77;;
37001;SDS011;22913;51.910;8.374;2023-04-24T05:59:48;9.63;;;8.70;;
37001;SDS011;22913;51.910;8.374;2023-04-24T06:02:34;9.50;;;7.93;;
37001;SDS011;22913;51.910;8.374;2023-04-24T06:05:21;8.67;;;7.77;;
37001;SDS011;22913;51.910;8.374;2023-04-24T06:08:07;8.73;;;7.93;;
37001;SDS011;22913;51.910;8.374;2023-04-24T06:10:53;7.73;;;7.03;;
37001;SDS011;22913;51.910;8.374;2023-04-24T06:13:39;8.83;;;7.93;;
37001;SDS011;22913;51.910;8.374;2023-04-24T06:16:25;10.17;;;8.53;;
37001;SDS011;22913;51.910;8.374;2023-04-24T06:19:11;11.67;;;8.67;;
37001;SDS011;22913;51.910;8.374;2023-04-24T06:21:58;9.07;;;8.17;;
37001;SDS011;22913;51.910;8.374;2023-04-24T06:24:44;13.00;;;8.47;;
37001;SDS011;22913;51.910;8.374;2023-04-24T06:27:32;8.13;;;7.33;;
37001;SDS011;22913;51.910;8.374;2023-04-24T06:30:18;8.67;;;7.87;;
37001;SDS011;22913;51.910;8.374;2023-04-24T06:33:04;9.50;;;7.97;;
37001;SDS011;22913;51.910;8.374;2023-04-24T06:35:51;8.67;;;7.77;;
37001;SDS011;22913;51.910;8.374;2023-04-24T06:38:39;10.23;;;8.13;;
37001;SDS011;22913;51.910;8.374;2023-04-24T06:41:24;9.43;;;8.47;;
37001;SDS011;22913;51.910;8.374;2023-04-24T06:44:10;8.57;;;7.47;;
37001;SDS011;22913;51.910;8.374;2023-04-24T06:46:58;9.73;;;8.73;;
37001;SDS011;22913;51.910;8.374;2023-04-24T06:49:44;8.80;;;7.90;;
37001;SDS011;22913;51.910;8.374;2023-04-24T06:52:29;8.43;;;7.63;;
37001;SDS011;22913;51.910;8.374;2023-04-24T06:55:18;9.70;;;8.30;;
37001;SDS011;22913;51.910;8.374;2023-04-24T06:58:03;6.83;;;6.23;;
37001;SDS011;22913;51.910;8.374;2023-04-24T07:00:50;7.10;;;5.47;;
37001;SDS011;22913;51.910;8.374;2023-04-24T07:03:35;6.83;;;6.23;;
37001;SDS011;22913;51.910;8.374;2023-04-24T07:06:21;8.30;;;6.53;;
37001;SDS011;22913;51.910;8.374;2023-04-24T07:09:07;7.50;;;6.70;;
37001;SDS011;22913;51.910;8.374;2023-04-24T07:11:54;7.60;;;6.90;;
37001;SDS011;22913;51.910;8.374;2023-04-24T07:14:41;6.33;;;5.73;;
37001;SDS011;22913;51.910;8.374;2023-04-24T07:17:26;6.87;;;6.17;;
37001;SDS011;22913;51.910;8.374;2023-04-24T07:20:12;6.80;;;6.13;;
37001;SDS011;22913;51.910;8.374;2023-04-24T07:22:59;6.70;;;6.10;;
37001;SDS011;22913;51.910;8.374;2023-04-24T07:25:45;5.70;;;5.20;;
37001;SDS011;22913;51.910;8.374;2023-04-24T07:28:32;5.40;;;4.87;;
37001;SDS011;22913;51.910;8.374;2023-04-24T07:31:17;5.97;;;5.37;;
37001;SDS011;22913;51.910;8.374;2023-04-24T07:34:03;5.47;;;4.97;;
37001;SDS011;22913;51.910;8.374;2023-04-24T07:36:48;5.03;;;4.60;;
37001;SDS011;22913;51.910;8.374;2023-04-24T07:39:34;4.63;;;4.10;;
37001;SDS011;22913;51.910;8.374;2023-04-24T07:42:20;7.57;;;4.70;;
37001;SDS011;22913;51.910;8.374;2023-04-24T07:45:08;4.40;;;4.00;;
37001;SDS011;22913;51.910;8.374;2023-04-24T07:47:53;4.37;;;4.07;;
37001;SDS011;22913;51.910;8.374;2023-04-24T07:50:39;4.43;;;4.13;;
37001;SDS011;22913;51.910;8.374;2023-04-24T07:53:25;6.70;;;4.20;;
37001;SDS011;22913;51.910;8.374;2023-04-24T07:56:10;3.97;;;3.40;;
37001;SDS011;22913;51.910;8.374;2023-04-24T07:58:56;4.20;;;3.80;;
37001;SDS011;22913;51.910;8.374;2023-04-24T08:01:43;4.13;;;3.80;;
37001;SDS011;22913;51.910;8.374;2023-04-24T08:04:29;3.80;;;3.50;;
37001;SDS011;22913;51.910;8.374;2023-04-24T08:07:15;4.07;;;3.77;;
37001;SDS011;22913;51.910;8.374;2023-04-24T08:10:00;3.37;;;3.13;;
37001;SDS011;22913;51.910;8.374;2023-04-24T08:12:46;3.63;;;2.73;;
37001;SDS011;22913;51.910;8.374;2023-04-24T08:15:32;4.73;;;3.27;;
37001;SDS011;22913;51.910;8.374;2023-04-24T08:18:19;3.37;;;3.17;;
37001;SDS011;22913;51.910;8.374;2023-04-24T08:21:04;3.17;;;2.97;;
37001;SDS011;22913;51.910;8.374;2023-04-24T08:23:50;2.53;;;2.27;;
37001;SDS011;22913;51.910;8.374;2023-04-24T08:26:36;2.70;;;2.50;;
37001;SDS011;22913;51.910;8.374;2023-04-24T08:29:22;3.07;;;2.83;;
37001;SDS011;22913;51.910;8.374;2023-04-24T08:32:08;2.97;;;2.03;;
37001;SDS011;22913;51.910;8.374;2023-04-24T08:34:55;2.07;;;1.97;;
37001;SDS011;22913;51.910;8.374;2023-04-24T08:37:41;2.90;;;2.60;;
37001;SDS011;22913;51.910;8.374;2023-04-24T08:40:27;2.57;;;2.37;;
37001;SDS011;22913;51.910;8.374;2023-04-24T08:43:14;2.37;;;1.93;;
37001;SDS011;22913;51.910;8.374;2023-04-24T08:46:01;2.40;;;2.30;;
37001;SDS011;22913;51.910;8.374;2023-04-24T08:48:47;2.50;;;2.00;;
37001;SDS011;22913;51.910;8.374;2023-04-24T08:51:35;2.10;;;2.00;;
37001;SDS011;22913;51.910;8.374;2023-04-24T08:54:22;3.73;;;2.03;;
37001;SDS011;22913;51.910;8.374;2023-04-24T08:57:09;2.37;;;2.17;;
37001;SDS011;22913;51.910;8.374;2023-04-24T08:59:56;1.90;;;1.80;;
37001;SDS011;22913;51.910;8.374;2023-04-24T09:02:43;2.00;;;1.77;;
37001;SDS011;22913;51.910;8.374;2023-04-24T09:05:31;2.30;;;2.10;;
37001;SDS011;22913;51.910;8.374;2023-04-24T09:08:19;2.20;;;2.00;;
37001;SDS011;22913;51.910;8.374;2023-04-24T09:11:05;1.90;;;1.80;;
37001;SDS011;22913;51.910;8.374;2023-04-24T09:13:51;2.00;;;1.90;;
37001;SDS011;22913;51.910;8.374;2023-04-24T09:16:36;1.90;;;1.80;;
37001;SDS011;22913;51.910;8.374;2023-04-24T09:19:22;1.80;;;1.70;;
37001;SDS011;22913;51.910;8.374;2023-04-24T09:22:08;2.37;;;1.37;;
37001;SDS011;22913;51.910;8.374;2023-04-24T09:25:00;1.77;;;1.67;;
37001;SDS011;22913;51.910;8.374;2023-04-24T09:27:47;2.63;;;1.93;;
37001;SDS011;22913;51.910;8.374;2023-04-24T09:30:33;1.60;;;1.50;;
37001;SDS011;22913;51.910;8.374;2023-04-24T09:33:19;1.50;;;1.40;;
37001;SDS011;22913;51.910;8.374;2023-04-24T09:36:05;1.70;;;1.60;;
37001;SDS011;22913;51.910;8.374;2023-04-24T09:38:53;1.33;;;1.30;;
37001;SDS011;22913;51.910;8.374;2023-04-24T09:41:47;2.53;;;1.47;;
37001;SDS011;22913;51.910;8.374;2023-04-24T09:44:34;1.43;;;1.40;;
37001;SDS011;22913;51.910;8.374;2023-04-24T09:47:19;1.30;;;1.30;;
37001;SDS011;22913;51.910;8.374;2023-04-24T09:50:09;1.63;;;1.40;;
37001;SDS011;22913;51.910;8.374;2023-04-24T09:52:56;1.60;;;1.50;;
37001;SDS011;22913;51.910;8.374;2023-04-24T09:55:44;1.40;;;1.40;;
37001;SDS011;22913;51.910;8.374;2023-04-24T09:58:34;1.30;;;1.30;;
37001;SDS011;22913;51.910;8.374;2023-04-24T10:01:28;1.40;;;1.40;;
37001;SDS011;22913;51.910;8.374;2023-04-24T10:04:16;1.30;;;1.20;;
37001;SDS011;22913;51.910;8.374;2023-04-24T10:07:02;1.00;;;1.00;;
37001;SDS011;22913;51.910;8.374;2023-04-24T10:09:50;1.23;;;1.23;;
37001;SDS011;22913;51.910;8.374;2023-04-24T10:12:36;0.90;;;0.90;;
37001;SDS011;22913;51.910;8.374;2023-04-24T10:15:23;1.30;;;1.30;;
37001;SDS011;22913;51.910;8.374;2023-04-24T10:18:10;1.23;;;1.13;;
37001;SDS011;22913;51.910;8.374;2023-04-24T10:20:56;1.10;;;1.10;;
37001;SDS011;22913;51.910;8.374;2023-04-24T10:23:44;1.47;;;1.43;;
37001;SDS011;22913;51.910;8.374;2023-04-24T10:26:30;1.53;;;1.47;;
37001;SDS011;22913;51.910;8.374;2023-04-24T10:29:17;1.43;;;1.43;;
37001;SDS011;22913;51.910;8.374;2023-04-24T10:32:07;1.63;;;1.57;;
37001;SDS011;22913;51.910;8.374;2023-04-24T10:34:55;2.10;;;2.00;;
37001;SDS011;22913;51.910;8.374;2023-04-24T10:37:42;1.80;;;1.70;;
37001;SDS011;22913;51.910;8.374;2023-04-24T10:40:31;1.60;;;1.50;;
37001;SDS011;22913;51.910;8.374;2023-04-24T10:43:18;1.70;;;1.63;;
37001;SDS011;22913;51.910;8.374;2023-04-24T10:46:04;7.10;;;1.50;;
37001;SDS011;22913;51.910;8.374;2023-04-24T10:48:53;1.60;;;1.50;;
37001;SDS011;22913;51.910;8.374;2023-04-24T10:51:44;1.60;;;1.50;;
37001;SDS011;22913;51.910;8.374;2023-04-24T10:54:34;1.50;;;1.40;;
37001;SDS011;22913;51.910;8.374;2023-04-24T10:57:27;1.23;;;1.23;;
37001;SDS011;22913;51.910;8.374;2023-04-24T11:00:18;1.40;;;1.40;;
37001;SDS011;22913;51.910;8.374;2023-04-24T11:03:04;1.30;;;1.30;;
37001;SDS011;22913;51.910;8.374;2023-04-24T11:05:58;1.50;;;1.40;;
37001;SDS011;22913;51.910;8.374;2023-04-24T11:08:45;1.83;;;1.73;;
37001;SDS011;22913;51.910;8.374;2023-04-24T11:11:35;2.03;;;1.93;;
37001;SDS011;22913;51.910;8.374;2023-04-24T11:14:23;1.97;;;1.87;;
37001;SDS011;22913;51.910;8.374;2023-04-24T11:17:09;2.17;;;2.07;;
37001;SDS011;22913;51.910;8.374;2023-04-24T11:20:16;2.83;;;2.63;;
37001;SDS011;22913;51.910;8.374;2023-04-24T11:23:04;3.60;;;3.30;;
37001;SDS011;22913;51.910;8.374;2023-04-24T11:29:06;3.20;;;2.90;;
37001;SDS011;22913;51.910;8.374;2023-04-24T11:31:52;3.47;;;3.17;;
37001;SDS011;22913;51.910;8.374;2023-04-24T11:34:38;3.13;;;2.93;;
37001;SDS011;22913;51.910;8.374;2023-04-24T11:37:25;3.20;;;3.00;;
37001;SDS011;22913;51.910;8.374;2023-04-24T11:40:13;3.27;;;2.90;;
37001;SDS011;22913;51.910;8.374;2023-04-24T11:43:00;3.10;;;2.90;;
37001;SDS011;22913;51.910;8.374;2023-04-24T11:45:49;3.40;;;3.10;;
37001;SDS011;22913;51.910;8.374;2023-04-24T11:48:34;3.33;;;3.03;;
37001;SDS011;22913;51.910;8.374;2023-04-24T11:51:23;3.17;;;2.90;;
37001;SDS011;22913;51.910;8.374;2023-04-24T11:54:10;2.83;;;2.63;;
37001;SDS011;22913;51.910;8.374;2023-04-24T11:56:57;2.43;;;2.23;;
37001;SDS011;22913;51.910;8.374;2023-04-24T11:59:43;3.03;;;2.83;;
37001;SDS011;22913;51.910;8.374;2023-04-24T12:02:30;2.77;;;2.63;;
37001;SDS011;22913;51.910;8.374;2023-04-24T12:05:18;2.23;;;2.00;;
37001;SDS011;22913;51.910;8.374;2023-04-24T12:08:04;2.10;;;2.00;;
37001;SDS011;22913;51.910;8.374;2023-04-24T12:10:50;2.57;;;2.37;;
37001;SDS011;22913;51.910;8.374;2023-04-24T12:13:37;2.30;;;2.10;;
37001;SDS011;22913;51.910;8.374;2023-04-24T12:16:23;4.17;;;3.20;;
37001;SDS011;22913;51.910;8.374;2023-04-24T12:19:10;4.57;;;3.80;;
37001;SDS011;22913;51.910;8.374;2023-04-24T12:22:00;3.00;;;2.77;;
37001;SDS011;22913;51.910;8.374;2023-04-24T12:24:56;5.10;;;3.63;;
37001;SDS011;22913;51.910;8.374;2023-04-24T12:27:45;4.30;;;3.00;;
37001;SDS011;22913;51.910;8.374;2023-04-24T12:30:40;10.83;;;3.43;;
37001;SDS011;22913;51.910;8.374;2023-04-24T12:33:27;3.43;;;3.13;;
37001;SDS011;22913;51.910;8.374;2023-04-24T12:36:17;3.30;;;3.00;;
37001;SDS011;22913;51.910;8.374;2023-04-24T12:39:02;3.60;;;3.30;;
37001;SDS011;22913;51.910;8.374;2023-04-24T12:41:58;4.00;;;3.30;;
37001;SDS011;22913;51.910;8.374;2023-04-24T12:44:44;3.70;;;3.10;;
37001;SDS011;22913;51.910;8.374;2023-04-24T12:47:34;4.00;;;3.27;;
37001;SDS011;22913;51.910;8.374;2023-04-24T12:50:20;3.97;;;3.67;;
37001;SDS011;22913;51.910;8.374;2023-04-24T12:53:05;4.13;;;3.60;;
37001;SDS011;22913;51.910;8.374;2023-04-24T12:55:54;7.90;;;4.10;;
37001;SDS011;22913;51.910;8.374;2023-04-24T12:58:39;5.53;;;3.70;;
37001;SDS011;22913;51.910;8.374;2023-04-24T13:01:25;5.83;;;4.73;;
37001;SDS011;22913;51.910;8.374;2023-04-24T13:04:13;5.47;;;4.67;;
37001;SDS011;22913;51.910;8.374;2023-04-24T13:06:59;9.07;;;4.97;;
37001;SDS011;22913;51.910;8.374;2023-04-24T13:09:45;7.33;;;4.83;;
37001;SDS011;22913;51.910;8.374;2023-04-24T13:12:32;6.33;;;4.30;;
37001;SDS011;22913;51.910;8.374;2023-04-24T13:15:18;8.37;;;5.73;;
37001;SDS011;22913;51.910;8.374;2023-04-24T13:18:04;9.63;;;5.10;;
37001;SDS011;22913;51.910;8.374;2023-04-24T13:20:51;8.63;;;5.20;;
37001;SDS011;22913;51.910;8.374;2023-04-24T13:23:37;8.60;;;5.80;;
37001;SDS011;22913;51.910;8.374;2023-04-24T13:26:22;6.83;;;4.70;;
37001;SDS011;22913;51.910;8.374;2023-04-24T13:29:08;8.37;;;5.40;;
37001;SDS011;22913;51.910;8.374;2023-04-24T13:31:54;13.73;;;6.30;;
37001;SDS011;22913;51.910;8.374;2023-04-24T13:34:40;16.73;;;6.33;;
37001;SDS011;22913;51.910;8.374;2023-04-24T13:37:26;9.13;;;5.50;;
37001;SDS011;22913;51.910;8.374;2023-04-24T13:40:12;10.83;;;6.27;;
37001;SDS011;22913;51.910;8.374;2023-04-24T13:42:58;10.87;;;6.17;;
37001;SDS011;22913;51.910;8.374;2023-04-24T13:45:44;12.17;;;6.73;;
37001;SDS011;22913;51.910;8.374;2023-04-24T13:48:29;14.03;;;7.00;;
37001;SDS011;22913;51.910;8.374;2023-04-24T13:51:15;11.73;;;6.20;;
37001;SDS011;22913;51.910;8.374;2023-04-24T13:54:02;11.40;;;6.17;;
37001;SDS011;22913;51.910;8.374;2023-04-24T13:56:48;12.77;;;6.00;;
37001;SDS011;22913;51.910;8.374;2023-04-24T13:59:34;8.73;;;5.70;;
37001;SDS011;22913;51.910;8.374;2023-04-24T14:02:20;8.13;;;5.73;;
37001;SDS011;22913;51.910;8.374;2023-04-24T14:05:06;9.60;;;5.10;;
37001;SDS011;22913;51.910;8.374;2023-04-24T14:07:54;9.40;;;5.17;;
37001;SDS011;22913;51.910;8.374;2023-04-24T14:10:41;7.37;;;5.47;;
37001;SDS011;22913;51.910;8.374;2023-04-24T14:13:27;9.63;;;5.90;;
37001;SDS011;22913;51.910;8.374;2023-04-24T14:16:13;10.87;;;5.83;;
37001;SDS011;22913;51.910;8.374;2023-04-24T14:18:59;8.47;;;5.00;;
37001;SDS011;22913;51.910;8.374;2023-04-24T14:21:44;8.43;;;4.93;;
37001;SDS011;22913;51.910;8.374;2023-04-24T14:24:30;5.23;;;4.33;;
37001;SDS011;22913;51.910;8.374;2023-04-24T14:27:18;6.53;;;5.00;;
37001;SDS011;22913;51.910;8.374;2023-04-24T14:30:04;8.87;;;5.30;;
37001;SDS011;22913;51.910;8.374;2023-04-24T14:32:50;5.10;;;3.83;;
37001;SDS011;22913;51.910;8.374;2023-04-24T14:35:36;7.30;;;4.53;;
37001;SDS011;22913;51.910;8.374;2023-04-24T14:38:22;6.50;;;4.00;;
37001;SDS011;22913;51.910;8.374;2023-04-24T14:41:07;7.20;;;3.73;;
37001;SDS011;22913;51.910;8.374;2023-04-24T14:43:55;8.73;;;3.77;;
37001;SDS011;22913;51.910;8.374;2023-04-24T14:46:41;5.77;;;3.30;;
37001;SDS011;22913;51.910;8.374;2023-04-24T14:49:26;6.63;;;3.17;;
37001;SDS011;22913;51.910;8.374;2023-04-24T14:52:12;3.43;;;2.90;;
37001;SDS011;22913;51.910;8.374;2023-04-24T14:54:58;3.30;;;3.03;;
37001;SDS011;22913;51.910;8.374;2023-04-24T14:57:44;3.17;;;2.63;;
37001;SDS011;22913;51.910;8.374;2023-04-24T15:00:31;6.57;;;2.77;;
37001;SDS011;22913;51.910;8.374;2023-04-24T15:03:16;4.47;;;3.17;;
37001;SDS011;22913;51.910;8.374;2023-04-24T15:06:02;6.30;;;3.00;;
37001;SDS011;22913;51.910;8.374;2023-04-24T15:08:48;6.13;;;2.93;;
37001;SDS011;22913;51.910;8.374;2023-04-24T15:11:34;3.07;;;2.77;;
37001;SDS011;22913;51.910;8.374;2023-04-24T15:14:20;2.53;;;2.23;;
37001;SDS011;22913;51.910;8.374;2023-04-24T15:17:07;2.83;;;2.57;;
37001;SDS011;22913;51.910;8.374;2023-04-24T15:19:52;4.13;;;2.33;;
37001;SDS011;22913;51.910;8.374;2023-04-24T15:22:38;6.23;;;2.37;;
37001;SDS011;22913;51.910;8.374;2023-04-24T15:25:24;2.83;;;1.97;;
37001;SDS011;22913;51.910;8.374;2023-04-24T15:28:10;2.23;;;2.10;;
37001;SDS011;22913;51.910;8.374;2023-04-24T15:30:56;3.50;;;2.80;;
37001;SDS011;22913;51.910;8.374;2023-04-24T15:33:43;4.50;;;2.77;;
37001;SDS011;22913;51.910;8.374;2023-04-24T15:36:29;2.80;;;2.47;;
37001;SDS011;22913;51.910;8.374;2023-04-24T15:39:15;3.40;;;2.17;;
37001;SDS011;22913;51.910;8.374;2023-04-24T15:42:01;3.77;;;2.20;;
37001;SDS011;22913;51.910;8.374;2023-04-24T15:44:46;3.73;;;2.80;;
37001;SDS011;22913;51.910;8.374;2023-04-24T15:47:32;2.77;;;2.50;;
37001;SDS011;22913;51.910;8.374;2023-04-24T15:50:20;3.77;;;2.10;;
37001;SDS011;22913;51.910;8.374;2023-04-24T15:53:06;3.17;;;2.00;;
37001;SDS011;22913;51.910;8.374;2023-04-24T15:55:52;2.50;;;2.20;;
37001;SDS011;22913;51.910;8.374;2023-04-24T15:58:40;3.30;;;1.90;;
37001;SDS011;22913;51.910;8.374;2023-04-24T16:01:25;3.07;;;2.20;;
37001;SDS011;22913;51.910;8.374;2023-04-24T16:04:11;2.73;;;2.07;;
37001;SDS011;22913;51.910;8.374;2023-04-24T16:06:58;5.63;;;2.37;;
37001;SDS011;22913;51.910;8.374;2023-04-24T16:09:44;2.47;;;2.03;;
37001;SDS011;22913;51.910;8.374;2023-04-24T16:12:30;2.77;;;2.17;;
37001;SDS011;22913;51.910;8.374;2023-04-24T16:15:15;4.40;;;2.03;;
37001;SDS011;22913;51.910;8.374;2023-04-24T16:18:01;2.20;;;2.00;;
37001;SDS011;22913;51.910;8.374;2023-04-24T16:20:47;2.77;;;2.10;;
37001;SDS011;22913;51.910;8.374;2023-04-24T16:23:34;3.83;;;2.30;;
37001;SDS011;22913;51.910;8.374;2023-04-24T16:26:20;5.03;;;2.47;;
37001;SDS011;22913;51.910;8.374;2023-04-24T16:29:06;2.20;;;2.00;;
37001;SDS011;22913;51.910;8.374;2023-04-24T16:31:51;1.90;;;1.80;;
37001;SDS011;22913;51.910;8.374;2023-04-24T16:34:37;2.80;;;1.87;;
37001;SDS011;22913;51.910;8.374;2023-04-24T16:37:23;2.37;;;1.87;;
37001;SDS011;22913;51.910;8.374;2023-04-24T16:40:10;4.70;;;1.77;;
37001;SDS011;22913;51.910;8.374;2023-04-24T16:42:56;3.87;;;2.20;;
37001;SDS011;22913;51.910;8.374;2023-04-24T16:45:41;3.50;;;2.27;;
37001;SDS011;22913;51.910;8.374;2023-04-24T16:48:27;1.80;;;1.70;;